Time;durP1;ratioP1;P1;durP2;ratioP2;P2;SDS_P1;SDS_P2;PMS_P1;PMS_P2;Temp;Humidity;BMP_temperature;BMP_pressure;BME280_temperature;BME280_humidity;BME280_pressure;Samples;Min_cycle;Max_cycle;Signal;HPM_P1;HPM_P2
2023/12/21 00:01:01;;;;;;;0.77;0.10;;;6.10;99.90;;;;;;4957939;29;20028;-75
2023/12/21 00:03:26;;;;;;;1.88;0.32;;;6.10;99.90;;;;;;4959658;29;20153;-75
2023/12/21 00:06:16;;;;;;;0.75;0.30;;;6.10;99.90;;;;;;4961430;29;20036;-76
2023/12/21 00:08:41;;;;;;;0.10;0.10;;;6.20;99.90;;;;;;5001295;23;20103;-76
2023/12/21 00:11:07;;;;;;;0.32;0.32;;;6.30;99.90;;;;;;4979741;28;20015;-75
2023/12/21 00:13:33;;;;;;;0.10;0.10;;;6.30;99.90;;;;;;4979993;28;20015;-75
2023/12/21 00:15:58;;;;;;;0.15;0.15;;;6.30;99.90;;;;;;4963035;29;20011;-76
2023/12/21 00:18:47;;;;;;;0.10;0.10;;;6.40;99.90;;;;;;4961974;29;20091;-75
2023/12/21 00:21:19;;;;;;;0.38;0.20;;;6.90;99.90;;;;;;4970678;28;20030;-75
2023/12/21 00:23:53;;;;;;;0.10;0.10;;;6.50;99.90;;;;;;4978787;28;20051;-76
2023/12/21 00:26:42;;;;;;;3.85;0.38;;;6.50;99.90;;;;;;4978544;29;20038;-75
2023/12/21 00:29:14;;;;;;;1.85;0.20;;;6.50;99.90;;;;;;4961162;29;20016;-75
2023/12/21 00:31:40;;;;;;;0.30;0.28;;;6.60;99.90;;;;;;4959141;29;20122;-76
2023/12/21 00:34:26;;;;;;;0.17;0.17;;;6.60;99.90;;;;;;4977423;29;20026;-75
2023/12/21 00:36:52;;;;;;;0.10;0.10;;;6.60;99.90;;;;;;4975397;29;20031;-75
2023/12/21 00:39:17;;;;;;;0.20;0.10;;;6.70;99.90;;;;;;4976088;29;20039;-75
2023/12/21 00:41:49;;;;;;;0.65;0.20;;;6.70;99.90;;;;;;4961976;29;20003;-76
2023/12/21 00:44:34;;;;;;;0.10;0.10;;;6.70;99.90;;;;;;4974980;28;20031;-77
2023/12/21 00:47:02;;;;;;;0.17;0.13;;;6.70;99.90;;;;;;4971905;29;20082;-76
2023/12/21 00:49:28;;;;;;;0.77;0.20;;;6.80;99.90;;;;;;4974511;29;20023;-82
2023/12/21 00:51:57;;;;;;;0.20;0.20;;;6.80;99.90;;;;;;4957062;29;20046;-79
2023/12/21 00:54:23;;;;;;;0.10;0.10;;;6.80;99.90;;;;;;4976474;29;20046;-76
2023/12/21 00:56:49;;;;;;;0.22;0.10;;;6.80;99.90;;;;;;4975274;29;20031;-77
2023/12/21 00:59:16;;;;;;;0.73;0.10;;;6.80;99.90;;;;;;4959032;29;20034;-78
2023/12/21 01:01:42;;;;;;;0.15;0.15;;;6.80;99.90;;;;;;4976242;29;20024;-79
2023/12/21 01:04:08;;;;;;;0.32;0.30;;;6.70;99.90;;;;;;4960870;29;20042;-78
2023/12/21 01:06:36;;;;;;;0.10;0.10;;;6.70;99.90;;;;;;4976948;28;20020;-82
2023/12/21 01:09:03;;;;;;;0.10;0.10;;;6.80;99.90;;;;;;4959763;29;20043;-80
2023/12/21 01:11:29;;;;;;;0.20;0.17;;;6.70;99.90;;;;;;4958764;29;20023;-81
2023/12/21 01:13:55;;;;;;;0.10;0.10;;;6.70;99.90;;;;;;4975784;29;20031;-81
2023/12/21 01:16:22;;;;;;;0.30;0.20;;;6.80;99.90;;;;;;4974856;29;20083;-76
2023/12/21 01:18:48;;;;;;;0.10;0.10;;;6.80;99.90;;;;;;4974920;28;20023;-78
2023/12/21 01:21:13;;;;;;;0.10;0.10;;;6.80;99.90;;;;;;4978965;29;20030;-81
2023/12/21 01:23:55;;;;;;;0.28;0.28;;;6.80;99.90;;;;;;4979204;29;20079;-80
2023/12/21 01:26:21;;;;;;;0.10;0.10;;;6.80;99.90;;;;;;4978648;29;20027;-78
2023/12/21 01:28:50;;;;;;;0.10;0.10;;;6.80;99.90;;;;;;4960617;29;20023;-79
2023/12/21 01:31:16;;;;;;;0.10;0.10;;;6.80;99.90;;;;;;4978126;29;20015;-77
2023/12/21 01:33:45;;;;;;;0.20;0.20;;;6.80;99.90;;;;;;4981284;29;20030;-80
2023/12/21 01:36:19;;;;;;;0.10;0.10;;;6.80;99.90;;;;;;4962508;29;20120;-76
2023/12/21 01:38:45;;;;;;;0.10;0.10;;;6.80;99.90;;;;;;4964910;28;20050;-77
2023/12/21 01:41:11;;;;;;;0.50;0.08;;;6.80;99.90;;;;;;4963859;29;20051;-80
2023/12/21 01:43:37;;;;;;;0.15;0.15;;;6.80;99.90;;;;;;4978380;29;20028;-76
2023/12/21 01:46:05;;;;;;;1.13;0.15;;;6.80;99.90;;;;;;4960814;29;20062;-79
2023/12/21 01:48:34;;;;;;;8.30;0.47;;;6.80;99.90;;;;;;4978728;29;20019;-76
2023/12/21 01:51:11;;;;;;;0.10;0.10;;;6.80;99.90;;;;;;4977353;29;20035;-79
2023/12/21 01:53:48;;;;;;;0.25;0.10;;;6.80;99.90;;;;;;4961592;29;20023;-81
2023/12/21 01:56:13;;;;;;;0.10;0.10;;;6.80;99.90;;;;;;4942037;29;20038;-79
2023/12/21 01:58:39;;;;;;;2.83;0.80;;;6.80;99.90;;;;;;4942451;29;20024;-79
2023/12/21 02:01:06;;;;;;;0.17;0.10;;;6.80;99.90;;;;;;4942664;29;20032;-76
2023/12/21 02:03:33;;;;;;;0.00;0.00;;;6.80;99.90;;;;;;4941273;29;20019;-77
2023/12/21 02:05:59;;;;;;;0.10;0.10;;;6.80;99.90;;;;;;4956533;29;20064;-80
2023/12/21 02:08:29;;;;;;;0.20;0.20;;;6.80;99.90;;;;;;4957181;28;20039;-77
2023/12/21 02:10:59;;;;;;;;;;;6.80;99.90;;;;;;4945252;28;20095;-77
2023/12/21 02:13:25;;;;;;;0.70;0.10;;;6.80;99.90;;;;;;4965509;28;19907;-76
2023/12/21 02:15:57;;;;;;;0.10;0.10;;;6.70;99.90;;;;;;4979689;28;20027;-79
2023/12/21 02:18:25;;;;;;;0.17;0.17;;;6.70;99.90;;;;;;4963199;29;20062;-79
2023/12/21 02:21:10;;;;;;;0.10;0.10;;;6.80;99.90;;;;;;4957161;29;20030;-81
2023/12/21 02:23:41;;;;;;;0.77;0.20;;;6.80;99.90;;;;;;4958693;29;20019;-77
2023/12/21 02:26:13;;;;;;;0.10;0.10;;;6.80;99.90;;;;;;4959707;29;20039;-76
2023/12/21 02:28:40;;;;;;;0.10;0.10;;;6.80;99.90;;;;;;4972616;29;20042;-77
2023/12/21 02:31:10;;;;;;;0.15;0.15;;;6.80;99.90;;;;;;4960203;29;20027;-78
2023/12/21 02:33:42;;;;;;;0.10;0.10;;;6.80;99.90;;;;;;4975950;29;20023;-77
2023/12/21 02:36:08;;;;;;;0.10;0.10;;;6.80;99.90;;;;;;4958015;29;20038;-76
2023/12/21 02:38:35;;;;;;;0.10;0.10;;;6.80;99.90;;;;;;4975911;29;20030;-76
2023/12/21 02:41:08;;;;;;;0.20;0.20;;;6.80;99.90;;;;;;4973685;29;20026;-76
2023/12/21 02:43:38;;;;;;;0.00;0.00;;;6.80;99.90;;;;;;4940793;29;20036;-76
2023/12/21 02:46:04;;;;;;;0.10;0.10;;;6.80;99.90;;;;;;4957164;29;20055;-76
2023/12/21 02:48:30;;;;;;;0.10;0.10;;;6.80;99.90;;;;;;4957780;29;20047;-79
2023/12/21 02:50:57;;;;;;;0.03;0.03;;;6.90;99.90;;;;;;4936638;29;20027;-80
2023/12/21 02:53:22;;;;;;;0.38;0.10;;;6.20;99.90;;;;;;4956059;29;20027;-81
2023/12/21 02:55:50;;;;;;;0.10;0.10;;;6.90;99.90;;;;;;4976480;29;20119;-79
2023/12/21 02:58:24;;;;;;;0.05;0.05;;;7.00;99.90;;;;;;4976257;29;20082;-80
2023/12/21 03:00:53;;;;;;;0.00;0.00;;;7.00;99.90;;;;;;4958931;29;20007;-80
2023/12/21 03:03:20;;;;;;;;;;;7.00;99.90;;;;;;4977621;29;20043;-79
2023/12/21 03:05:46;;;;;;;0.10;0.10;;;7.00;99.90;;;;;;4975202;29;20098;-77
2023/12/21 03:08:32;;;;;;;0.65;0.10;;;7.00;99.90;;;;;;4976654;29;20055;-79
2023/12/21 03:10:57;;;;;;;0.47;0.10;;;7.00;99.90;;;;;;4977067;29;20007;-79
2023/12/21 03:13:23;;;;;;;1.35;0.10;;;7.00;99.90;;;;;;4959281;29;20007;-76
2023/12/21 03:15:49;;;;;;;0.10;0.10;;;7.00;99.90;;;;;;4977413;29;20037;-76
2023/12/21 03:18:19;;;;;;;0.80;0.10;;;7.00;99.90;;;;;;4977980;29;20024;-80
2023/12/21 03:20:45;;;;;;;0.20;0.10;;;7.00;99.90;;;;;;4977878;29;20023;-78
2023/12/21 03:23:14;;;;;;;0.20;0.00;;;7.00;99.90;;;;;;4960039;29;20046;-82
2023/12/21 03:25:41;;;;;;;0.10;0.10;;;7.00;99.90;;;;;;4978836;29;20063;-80
2023/12/21 03:28:09;;;;;;;0.10;0.10;;;7.00;99.90;;;;;;4955908;29;20228;-77
2023/12/21 03:30:35;;;;;;;0.00;0.00;;;7.00;99.90;;;;;;4977412;29;20019;-79
2023/12/21 03:33:01;;;;;;;0.00;0.00;;;7.00;99.90;;;;;;4975511;29;20083;-78
2023/12/21 03:35:29;;;;;;;0.00;0.00;;;7.00;99.90;;;;;;4978696;29;20030;-81
2023/12/21 03:37:55;;;;;;;0.52;0.52;;;7.10;99.90;;;;;;4962544;28;20023;-80
2023/12/21 03:40:21;;;;;;;0.10;0.10;;;7.10;99.90;;;;;;4977803;29;20038;-82
2023/12/21 03:42:51;;;;;;;0.08;0.08;;;7.10;99.90;;;;;;4958175;29;20030;-78
2023/12/21 03:45:18;;;;;;;0.10;0.10;;;7.10;99.90;;;;;;4975769;29;20102;-80
2023/12/21 03:47:44;;;;;;;0.10;0.10;;;7.10;99.90;;;;;;4974073;29;20075;-82
2023/12/21 03:50:10;;;;;;;0.08;0.08;;;7.20;99.90;;;;;;4977822;29;20019;-80
2023/12/21 03:52:36;;;;;;;0.15;0.10;;;7.20;99.90;;;;;;4976218;29;20303;-81
2023/12/21 03:55:01;;;;;;;0.85;0.10;;;7.30;99.90;;;;;;4973543;29;20051;-82
2023/12/21 03:57:27;;;;;;;0.00;0.00;;;7.30;99.90;;;;;;4972870;29;20026;-84
2023/12/21 03:59:53;;;;;;;0.20;0.20;;;7.30;99.90;;;;;;4975294;29;20326;-83
2023/12/21 04:02:19;;;;;;;0.00;0.00;;;7.30;99.90;;;;;;4974146;29;20063;-83
2023/12/21 04:04:44;;;;;;;0.00;0.00;;;7.20;99.90;;;;;;4972954;29;20094;-81
2023/12/21 04:07:10;;;;;;;0.03;0.00;;;7.30;99.90;;;;;;4955811;29;20331;-80
2023/12/21 04:09:36;;;;;;;0.00;0.00;;;7.30;99.90;;;;;;4975110;29;20054;-84
2023/12/21 04:12:01;;;;;;;0.10;0.10;;;7.20;99.90;;;;;;4974507;29;20039;-77
2023/12/21 04:14:48;;;;;;;1.98;0.00;;;7.10;99.90;;;;;;4978220;28;20083;-76
2023/12/21 04:17:20;;;;;;;0.10;0.10;;;7.10;99.90;;;;;;4979671;28;20075;-83
2023/12/21 04:19:46;;;;;;;0.10;0.10;;;7.00;99.90;;;;;;4978116;29;20016;-79
2023/12/21 04:22:12;;;;;;;0.10;0.10;;;7.10;99.90;;;;;;4979660;29;20027;-82
2023/12/21 04:24:37;;;;;;;0.00;0.00;;;7.20;99.90;;;;;;4979010;29;20035;-79
2023/12/21 04:27:06;;;;;;;0.05;0.05;;;7.20;99.90;;;;;;4961641;29;20023;-77
2023/12/21 04:29:31;;;;;;;1.27;0.20;;;7.30;99.90;;;;;;4978777;28;20046;-78
2023/12/21 04:32:26;;;;;;;0.10;0.10;;;7.30;99.90;;;;;;4962590;29;20027;-77
2023/12/21 04:34:55;;;;;;;0.10;0.10;;;7.40;99.90;;;;;;4962586;28;20091;-79
2023/12/21 04:37:20;;;;;;;0.10;0.10;;;7.30;99.90;;;;;;4975763;28;20042;-77
2023/12/21 04:39:47;;;;;;;1.27;0.10;;;7.30;99.90;;;;;;4957492;29;20023;-81
2023/12/21 04:42:13;;;;;;;0.00;0.00;;;7.20;99.90;;;;;;4976930;28;20027;-81
2023/12/21 04:44:39;;;;;;;2.45;0.10;;;7.20;99.90;;;;;;4979267;28;20039;-81
2023/12/21 04:47:17;;;;;;;1.15;0.10;;;7.30;99.90;;;;;;4979123;28;20074;-76
2023/12/21 04:49:43;;;;;;;0.00;0.00;;;7.40;99.90;;;;;;4978623;28;20041;-76
2023/12/21 04:52:09;;;;;;;0.35;0.35;;;7.40;99.90;;;;;;4978629;28;20046;-75
2023/12/21 04:54:36;;;;;;;0.00;0.00;;;7.50;99.90;;;;;;4980729;28;20062;-76
2023/12/21 04:57:02;;;;;;;0.10;0.10;;;7.60;99.90;;;;;;4982244;28;20035;-80
2023/12/21 04:59:28;;;;;;;0.08;0.00;;;7.60;99.90;;;;;;4978244;29;20023;-84
2023/12/21 05:01:58;;;;;;;0.00;0.00;;;7.60;99.90;;;;;;4978490;28;20027;-76
2023/12/21 05:04:32;;;;;;;0.00;0.00;;;7.60;99.90;;;;;;4965405;29;20086;-75
2023/12/21 05:07:10;;;;;;;0.03;0.03;;;7.50;99.90;;;;;;4981728;29;20031;-75
2023/12/21 05:09:36;;;;;;;0.10;0.10;;;7.50;99.90;;;;;;4981843;28;20059;-80
2023/12/21 05:12:04;;;;;;;0.10;0.10;;;7.50;99.90;;;;;;4981851;29;20039;-79
2023/12/21 05:14:29;;;;;;;0.00;0.00;;;7.50;99.90;;;;;;4964183;29;20030;-79
2023/12/21 05:16:55;;;;;;;0.00;0.00;;;7.40;99.90;;;;;;4980710;29;20082;-76
2023/12/21 05:19:22;;;;;;;0.05;0.00;;;6.70;99.90;;;;;;4974419;29;20023;-78
2023/12/21 05:21:48;;;;;;;0.00;0.00;;;7.40;99.90;;;;;;4942236;29;20103;-77
2023/12/21 05:24:15;;;;;;;0.00;0.00;;;7.40;99.90;;;;;;4982389;29;20263;-77
2023/12/21 05:26:41;;;;;;;0.10;0.10;;;7.30;99.90;;;;;;4963668;29;20043;-79
2023/12/21 05:29:11;;;;;;;0.00;0.00;;;7.30;99.90;;;;;;4981491;29;20007;-77
2023/12/21 05:31:50;;;;;;;0.00;0.00;;;7.20;99.90;;;;;;4961991;28;20034;-76
2023/12/21 05:34:37;;;;;;;0.00;0.00;;;7.10;99.90;;;;;;4962718;28;20024;-78
2023/12/21 05:37:25;;;;;;;0.00;0.00;;;7.00;99.90;;;;;;4962013;28;20031;-76
2023/12/21 05:39:51;;;;;;;0.10;0.10;;;6.90;99.90;;;;;;4961958;28;20024;-81
2023/12/21 05:42:30;;;;;;;0.00;0.00;;;6.70;99.90;;;;;;4963005;28;20024;-80
2023/12/21 05:44:55;;;;;;;1.35;0.10;;;6.60;99.90;;;;;;4962936;28;20031;-79
2023/12/21 05:47:24;;;;;;;0.00;0.00;;;6.60;99.90;;;;;;4963029;29;20034;-77
2023/12/21 05:49:55;;;;;;;0.00;0.00;;;6.60;99.90;;;;;;4964200;29;20034;-76
2023/12/21 05:52:22;;;;;;;0.00;0.00;;;6.50;99.90;;;;;;4966603;29;20027;-76
2023/12/21 05:54:47;;;;;;;0.10;0.10;;;6.50;99.90;;;;;;4940596;29;20039;-76
2023/12/21 05:57:13;;;;;;;0.00;0.00;;;6.50;99.90;;;;;;4960042;29;20023;-76
2023/12/21 05:59:39;;;;;;;0.22;0.10;;;6.50;99.90;;;;;;4944297;29;20014;-80
2023/12/21 06:02:05;;;;;;;0.17;0.10;;;6.60;99.90;;;;;;4959911;29;20035;-78
2023/12/21 06:04:30;;;;;;;0.00;0.00;;;6.60;99.90;;;;;;4962978;28;20071;-78
2023/12/21 06:07:21;;;;;;;0.00;0.00;;;6.70;99.90;;;;;;4950183;28;20066;-77
2023/12/21 06:09:50;;;;;;;0.00;0.00;;;6.20;99.90;;;;;;5030179;23;20067;-75
2023/12/21 06:12:35;;;;;;;0.10;0.10;;;6.80;99.90;;;;;;4970888;28;20039;-75
2023/12/21 06:15:33;;;;;;;0.08;0.08;;;6.80;99.90;;;;;;4963075;29;20028;-76
2023/12/21 06:17:59;;;;;;;0.00;0.00;;;6.90;99.90;;;;;;4959792;28;20043;-75
2023/12/21 06:20:51;;;;;;;0.10;0.10;;;6.90;99.90;;;;;;4980708;28;20015;-75
2023/12/21 06:23:17;;;;;;;0.00;0.00;;;6.90;99.90;;;;;;4980498;28;20071;-75
2023/12/21 06:26:02;;;;;;;0.10;0.10;;;6.90;99.90;;;;;;4980828;28;20062;-76
2023/12/21 06:28:29;;;;;;;0.98;0.10;;;6.90;99.90;;;;;;4965142;28;20019;-75
2023/12/21 06:31:18;;;;;;;0.17;0.17;;;7.00;99.90;;;;;;4979909;28;20027;-78
2023/12/21 06:33:48;;;;;;;0.60;0.20;;;7.00;99.90;;;;;;4981079;28;20007;-78
2023/12/21 06:36:17;;;;;;;0.00;0.00;;;7.10;99.90;;;;;;4963568;28;20042;-77
2023/12/21 06:38:46;;;;;;;0.03;0.03;;;7.10;99.90;;;;;;4981324;28;20016;-75
2023/12/21 06:41:18;;;;;;;0.10;0.10;;;7.10;99.90;;;;;;4981095;28;20054;-75
2023/12/21 06:44:04;;;;;;;0.10;0.10;;;7.30;99.90;;;;;;4981094;28;20012;-76
2023/12/21 06:46:46;;;;;;;1.48;0.15;;;7.30;99.90;;;;;;4981384;28;20012;-76
2023/12/21 06:49:12;;;;;;;0.00;0.00;;;7.30;99.90;;;;;;4963226;29;20035;-75
2023/12/21 06:51:41;;;;;;;0.00;0.00;;;7.30;99.90;;;;;;4979364;28;20011;-78
2023/12/21 06:54:07;;;;;;;;;;;7.30;99.90;;;;;;4980808;28;20100;-78
2023/12/21 06:56:34;;;;;;;0.00;0.00;;;7.30;99.90;;;;;;4981188;28;19910;-79
2023/12/21 06:59:08;;;;;;;1.50;0.28;;;7.30;99.90;;;;;;4963829;28;20011;-75
2023/12/21 07:01:45;;;;;;;0.00;0.00;;;7.40;99.90;;;;;;4971165;28;20184;-82
2023/12/21 07:04:12;;;;;;;0.10;0.10;;;7.50;99.90;;;;;;4970798;29;20035;-83
2023/12/21 07:06:37;;;;;;;0.10;0.10;;;7.50;99.90;;;;;;4956140;29;20031;-81
2023/12/21 07:09:03;;;;;;;0.10;0.00;;;7.50;99.90;;;;;;4976173;29;20075;-83
2023/12/21 07:11:49;;;;;;;0.00;0.00;;;7.50;99.90;;;;;;4972289;29;20018;-76
2023/12/21 07:14:14;;;;;;;0.10;0.10;;;7.50;99.90;;;;;;4978121;29;20027;-77
2023/12/21 07:16:40;;;;;;;0.10;0.10;;;7.50;99.90;;;;;;4978885;28;20063;-76
2023/12/21 07:19:07;;;;;;;0.00;0.00;;;7.50;99.90;;;;;;4979263;28;20018;-75
2023/12/21 07:21:33;;;;;;;0.08;0.08;;;6.90;99.90;;;;;;4959650;29;20046;-77
2023/12/21 07:23:59;;;;;;;0.00;0.00;;;7.60;99.90;;;;;;4977849;29;20083;-81
2023/12/21 07:26:26;;;;;;;0.10;0.10;;;7.60;99.90;;;;;;4974550;29;20035;-76
2023/12/21 07:28:52;;;;;;;0.00;0.00;;;7.60;99.90;;;;;;4963653;29;20042;-76
2023/12/21 07:31:18;;;;;;;0.10;0.10;;;7.70;99.90;;;;;;4966919;29;20023;-76
2023/12/21 07:33:56;;;;;;;0.00;0.00;;;7.70;99.90;;;;;;4959995;29;20078;-76
2023/12/21 07:36:24;;;;;;;0.00;0.00;;;7.80;99.90;;;;;;4978785;28;20032;-76
2023/12/21 07:38:54;;;;;;;;;;;7.90;99.90;;;;;;4975950;29;20007;-79
2023/12/21 07:41:19;;;;;;;0.20;0.10;;;7.90;99.90;;;;;;4955988;29;19910;-79
2023/12/21 07:43:45;;;;;;;0.10;0.10;;;7.90;99.90;;;;;;4974947;29;20012;-80
2023/12/21 07:46:16;;;;;;;0.00;0.00;;;8.00;99.90;;;;;;4944746;29;20023;-81
2023/12/21 07:48:44;;;;;;;0.00;0.00;;;8.00;99.90;;;;;;4961964;29;20010;-81
2023/12/21 07:51:13;;;;;;;0.00;0.00;;;8.10;99.90;;;;;;4977982;28;20032;-82
2023/12/21 07:53:38;;;;;;;0.00;0.00;;;8.10;99.90;;;;;;4946084;29;20055;-80
2023/12/21 07:56:13;;;;;;;0.08;0.08;;;8.20;99.90;;;;;;4977776;28;20034;-79
2023/12/21 07:58:38;;;;;;;0.08;0.08;;;8.20;99.90;;;;;;4976801;29;20007;-80
2023/12/21 08:01:05;;;;;;;0.00;0.00;;;8.20;99.90;;;;;;4962060;29;20059;-80
2023/12/21 08:03:30;;;;;;;0.03;0.03;;;8.20;99.90;;;;;;4961628;29;20059;-81
2023/12/21 08:05:56;;;;;;;0.10;0.10;;;8.20;99.90;;;;;;4974527;29;20562;-82
2023/12/21 08:08:22;;;;;;;0.03;0.03;;;8.20;99.90;;;;;;4948748;29;20052;-78
2023/12/21 08:10:47;;;;;;;0.10;0.10;;;8.20;99.90;;;;;;4964872;29;20043;-79
2023/12/21 08:13:13;;;;;;;0.30;0.17;;;8.20;99.90;;;;;;4955910;29;20035;-81
2023/12/21 08:15:40;;;;;;;0.73;0.38;;;8.20;99.90;;;;;;4959307;29;20027;-79
2023/12/21 08:18:06;;;;;;;0.10;0.10;;;8.30;99.90;;;;;;4973466;29;20015;-82
2023/12/21 08:20:34;;;;;;;0.00;0.00;;;8.20;99.90;;;;;;4966144;29;20026;-81
2023/12/21 08:23:03;;;;;;;1.27;0.10;;;8.30;99.90;;;;;;4942974;29;20039;-83
2023/12/21 08:25:29;;;;;;;0.10;0.10;;;8.30;99.90;;;;;;4938203;29;20039;-80
2023/12/21 08:27:55;;;;;;;0.90;0.10;;;8.20;99.90;;;;;;4956123;28;20681;-79
2023/12/21 08:30:20;;;;;;;0.03;0.03;;;8.20;99.90;;;;;;4943927;29;20115;-79
2023/12/21 08:32:46;;;;;;;0.10;0.00;;;8.20;99.90;;;;;;4956599;29;20027;-78
2023/12/21 08:35:12;;;;;;;0.00;0.00;;;8.20;99.90;;;;;;4947988;29;20038;-80
2023/12/21 08:37:39;;;;;;;0.00;0.00;;;8.20;99.90;;;;;;4945345;29;20027;-80
2023/12/21 08:40:05;;;;;;;0.32;0.20;;;8.20;99.90;;;;;;4959669;29;20050;-79
2023/12/21 08:42:31;;;;;;;0.00;0.00;;;8.20;99.90;;;;;;4961749;29;20024;-79
2023/12/21 08:45:00;;;;;;;0.00;0.00;;;8.20;99.90;;;;;;4954649;29;20039;-79
2023/12/21 08:47:27;;;;;;;0.08;0.03;;;8.20;99.90;;;;;;4955019;29;20106;-79
2023/12/21 08:50:02;;;;;;;0.22;0.20;;;8.20;99.90;;;;;;4955044;29;20031;-79
2023/12/21 08:52:28;;;;;;;0.10;0.10;;;8.30;99.90;;;;;;4955015;29;20456;-79
2023/12/21 08:54:54;;;;;;;0.10;0.10;;;8.20;99.90;;;;;;4937016;29;20043;-79
2023/12/21 08:57:21;;;;;;;0.00;0.00;;;8.30;99.90;;;;;;4954692;29;20031;-78
2023/12/21 08:59:47;;;;;;;0.00;0.00;;;8.30;99.90;;;;;;4954755;29;20082;-79
2023/12/21 09:02:13;;;;;;;0.10;0.10;;;8.30;99.90;;;;;;4955010;29;20420;-78
2023/12/21 09:04:39;;;;;;;0.10;0.10;;;8.30;99.90;;;;;;4937184;29;20567;-78
2023/12/21 09:07:05;;;;;;;0.15;0.10;;;8.30;99.90;;;;;;4954535;29;20023;-78
2023/12/21 09:09:31;;;;;;;0.10;0.10;;;8.30;99.90;;;;;;4936873;29;20039;-78
2023/12/21 09:11:57;;;;;;;0.00;0.00;;;8.30;99.90;;;;;;4954432;29;20030;-79
2023/12/21 09:14:24;;;;;;;0.10;0.10;;;8.40;99.90;;;;;;4937245;29;20048;-79
2023/12/21 09:16:51;;;;;;;0.00;0.00;;;8.30;99.90;;;;;;4937180;29;20023;-78
2023/12/21 09:19:17;;;;;;;0.00;0.00;;;8.40;99.90;;;;;;4954885;29;20385;-78
2023/12/21 09:21:43;;;;;;;0.00;0.00;;;8.40;99.90;;;;;;4954412;29;20023;-78
2023/12/21 09:24:09;;;;;;;0.00;0.00;;;8.40;99.90;;;;;;4953926;29;20027;-79
2023/12/21 09:26:37;;;;;;;0.08;0.08;;;8.40;99.90;;;;;;4961889;29;20031;-78
2023/12/21 09:29:04;;;;;;;0.25;0.10;;;8.50;99.90;;;;;;4956412;29;20102;-82
2023/12/21 09:31:32;;;;;;;0.10;0.05;;;8.50;99.90;;;;;;4945073;29;20080;-81
2023/12/21 09:33:59;;;;;;;0.00;0.00;;;8.50;99.90;;;;;;4944378;29;20042;-81
2023/12/21 09:36:25;;;;;;;0.10;0.10;;;8.50;99.90;;;;;;4942089;29;20506;-81
2023/12/21 09:38:52;;;;;;;0.03;0.03;;;8.50;99.90;;;;;;4958755;29;20023;-81
2023/12/21 09:41:18;;;;;;;0.00;0.00;;;8.50;99.90;;;;;;4939543;29;20476;-81
2023/12/21 09:43:47;;;;;;;0.00;0.00;;;8.50;99.90;;;;;;4943033;29;20051;-81
2023/12/21 09:46:15;;;;;;;0.10;0.10;;;8.50;99.90;;;;;;4959912;29;20091;-82
2023/12/21 09:48:42;;;;;;;0.00;0.00;;;8.50;99.90;;;;;;4942372;29;20027;-82
2023/12/21 09:51:10;;;;;;;0.13;0.13;;;8.60;99.90;;;;;;4942290;29;20499;-82
2023/12/21 09:53:37;;;;;;;0.00;0.00;;;8.60;99.90;;;;;;4959213;29;20027;-82
2023/12/21 09:56:05;;;;;;;0.00;0.00;;;8.60;99.90;;;;;;4940180;29;20027;-82
2023/12/21 09:58:32;;;;;;;0.00;0.00;;;8.60;99.90;;;;;;4958898;29;20029;-82
2023/12/21 10:00:58;;;;;;;0.00;0.00;;;8.60;99.90;;;;;;4940272;29;20346;-82
2023/12/21 10:03:24;;;;;;;0.00;0.00;;;8.60;99.90;;;;;;4939756;29;20472;-81
2023/12/21 10:05:49;;;;;;;0.00;0.00;;;8.60;99.90;;;;;;4939070;29;20050;-81
2023/12/21 10:08:18;;;;;;;0.05;0.05;;;8.60;99.90;;;;;;4940466;29;20024;-82
2023/12/21 10:10:44;;;;;;;0.00;0.00;;;8.70;99.90;;;;;;4957635;29;20043;-82
2023/12/21 10:13:11;;;;;;;0.00;0.00;;;8.70;99.90;;;;;;4942269;29;20027;-82
2023/12/21 10:15:37;;;;;;;0.00;0.00;;;8.70;99.90;;;;;;4942364;29;20028;-82
2023/12/21 10:18:06;;;;;;;0.00;0.00;;;8.60;99.90;;;;;;4940907;29;20027;-82
2023/12/21 10:20:32;;;;;;;;;;;8.70;99.90;;;;;;4940010;29;20023;-81
2023/12/21 10:22:58;;;;;;;0.00;0.00;;;8.70;99.90;;;;;;4938722;29;20334;-81
2023/12/21 10:25:25;;;;;;;0.00;0.00;;;8.70;99.90;;;;;;4955464;29;20045;-81
2023/12/21 10:27:55;;;;;;;0.00;0.00;;;8.70;99.90;;;;;;4937894;29;20019;-82
2023/12/21 10:30:24;;;;;;;0.57;0.08;;;8.80;99.90;;;;;;4937881;29;20023;-80
2023/12/21 10:32:52;;;;;;;0.00;0.00;;;8.80;99.90;;;;;;4937817;29;20023;-81
2023/12/21 10:35:18;;;;;;;0.00;0.00;;;8.90;99.90;;;;;;4938378;29;20086;-81
2023/12/21 10:37:52;;;;;;;0.17;0.10;;;8.90;99.90;;;;;;4938151;29;20037;-80
2023/12/21 10:40:18;;;;;;;0.30;0.30;;;8.90;99.90;;;;;;4954780;29;20476;-81
2023/12/21 10:42:53;;;;;;;0.00;0.00;;;8.90;99.90;;;;;;4954863;29;20122;-81
2023/12/21 10:45:19;;;;;;;0.00;0.00;;;8.90;99.90;;;;;;4937739;29;20039;-81
2023/12/21 10:47:53;;;;;;;0.00;0.00;;;8.90;99.90;;;;;;4937988;29;20616;-82
2023/12/21 10:50:19;;;;;;;0.30;0.03;;;8.90;99.90;;;;;;4937901;29;20027;-81
2023/12/21 10:52:47;;;;;;;0.47;0.47;;;9.00;99.90;;;;;;4955144;28;20027;-82
2023/12/21 10:55:17;;;;;;;0.57;0.15;;;9.00;99.90;;;;;;4937245;29;20408;-80
2023/12/21 10:57:44;;;;;;;0.88;0.00;;;9.00;99.90;;;;;;4937088;29;20182;-80
2023/12/21 11:00:18;;;;;;;0.00;0.00;;;9.00;99.90;;;;;;4937462;29;20034;-81
2023/12/21 11:02:51;;;;;;;0.08;0.08;;;9.10;99.90;;;;;;4937508;29;20114;-81
2023/12/21 11:05:21;;;;;;;0.00;0.00;;;9.10;99.90;;;;;;4954675;29;20035;-81
2023/12/21 11:07:50;;;;;;;0.00;0.00;;;9.20;99.90;;;;;;4937715;29;20118;-82
2023/12/21 11:10:21;;;;;;;0.10;0.08;;;9.20;99.90;;;;;;4937909;29;20051;-81
2023/12/21 11:12:48;;;;;;;0.00;0.00;;;9.20;99.90;;;;;;4954993;29;20015;-81
2023/12/21 11:15:15;;;;;;;0.10;0.10;;;9.30;99.90;;;;;;4937310;29;20165;-81
2023/12/21 11:17:44;;;;;;;0.63;0.10;;;9.20;99.90;;;;;;4955151;29;20027;-82
2023/12/21 11:20:14;;;;;;;0.00;0.00;;;9.20;99.90;;;;;;4938285;29;20028;-81
2023/12/21 11:22:40;;;;;;;0.00;0.00;;;9.10;99.90;;;;;;4955078;29;20186;-81
2023/12/21 11:25:12;;;;;;;0.00;0.00;;;9.20;99.90;;;;;;4937493;29;20243;-81
2023/12/21 11:27:41;;;;;;;0.00;0.00;;;9.20;99.90;;;;;;4937912;29;20502;-81
2023/12/21 11:30:12;;;;;;;0.08;0.08;;;9.10;99.90;;;;;;4937177;29;20042;-81
2023/12/21 11:32:46;;;;;;;0.57;0.20;;;9.10;99.90;;;;;;4935817;29;20031;-81
2023/12/21 11:35:18;;;;;;;0.00;0.00;;;9.10;99.90;;;;;;4937129;29;20392;-81
2023/12/21 11:37:44;;;;;;;0.00;0.00;;;9.00;99.90;;;;;;4937260;29;20027;-81
2023/12/21 11:40:14;;;;;;;0.10;0.10;;;9.10;99.90;;;;;;4936819;29;20030;-81
2023/12/21 11:42:44;;;;;;;;;;;9.00;99.90;;;;;;4937035;29;20023;-81
2023/12/21 11:45:10;;;;;;;0.35;0.20;;;9.10;99.90;;;;;;4953805;29;19969;-81
2023/12/21 11:47:36;;;;;;;0.10;0.10;;;9.10;99.90;;;;;;4938011;29;20031;-81
2023/12/21 11:50:10;;;;;;;0.00;0.00;;;9.10;99.90;;;;;;4953112;29;20381;-81
2023/12/21 11:52:36;;;;;;;0.10;0.10;;;9.20;99.90;;;;;;4953143;29;20019;-80
2023/12/21 11:55:02;;;;;;;0.00;0.00;;;9.30;99.90;;;;;;4935418;29;20030;-83
2023/12/21 11:57:29;;;;;;;0.32;0.08;;;9.20;99.90;;;;;;4953348;29;20019;-81
2023/12/21 12:00:08;;;;;;;0.10;0.00;;;9.20;99.90;;;;;;4935957;29;20042;-81
2023/12/21 12:02:37;;;;;;;;;;;9.30;99.90;;;;;;4935976;28;20114;-80
2023/12/21 12:05:03;;;;;;;0.00;0.00;;;9.30;99.90;;;;;;4937100;29;19915;-81
2023/12/21 12:07:31;;;;;;;0.00;0.00;;;9.30;99.90;;;;;;4937619;29;20090;-81
2023/12/21 12:09:57;;;;;;;0.00;0.00;;;9.20;99.90;;;;;;4937177;29;20063;-80
2023/12/21 12:12:22;;;;;;;0.00;0.00;;;9.20;99.90;;;;;;4955203;29;20035;-81
2023/12/21 12:14:48;;;;;;;0.10;0.00;;;9.20;99.90;;;;;;4955116;29;20455;-82
2023/12/21 12:17:14;;;;;;;0.00;0.00;;;9.10;99.90;;;;;;4937320;29;20078;-81
2023/12/21 12:19:39;;;;;;;0.00;0.00;;;9.00;99.90;;;;;;4938115;29;20038;-81
2023/12/21 12:22:05;;;;;;;0.00;0.00;;;9.00;99.90;;;;;;4939118;29;20166;-82
2023/12/21 12:24:31;;;;;;;0.00;0.00;;;8.90;99.90;;;;;;4955828;29;20094;-81
2023/12/21 12:26:57;;;;;;;0.20;0.00;;;8.90;99.90;;;;;;4938077;29;20051;-82
2023/12/21 12:29:22;;;;;;;0.03;0.03;;;8.80;99.90;;;;;;4956048;29;20023;-82
2023/12/21 12:31:48;;;;;;;0.00;0.00;;;8.80;99.90;;;;;;4938461;29;20023;-81
2023/12/21 12:34:15;;;;;;;0.00;0.00;;;8.80;99.90;;;;;;4955801;29;20106;-82
2023/12/21 12:36:41;;;;;;;0.00;0.00;;;8.70;99.90;;;;;;4938304;29;20027;-82
2023/12/21 12:39:07;;;;;;;0.08;0.08;;;8.70;99.90;;;;;;4955596;29;20353;-81
2023/12/21 12:41:32;;;;;;;0.00;0.00;;;8.70;99.90;;;;;;4940158;29;20027;-81
2023/12/21 12:43:59;;;;;;;0.00;0.00;;;8.70;99.90;;;;;;4939983;29;20023;-81
2023/12/21 12:46:26;;;;;;;0.10;0.10;;;8.70;99.90;;;;;;4941268;29;20046;-83
2023/12/21 12:48:51;;;;;;;0.03;0.03;;;8.80;99.90;;;;;;4959196;29;20110;-82
2023/12/21 12:51:17;;;;;;;0.10;0.10;;;8.80;99.90;;;;;;4942355;29;20079;-81
2023/12/21 12:53:43;;;;;;;0.08;0.08;;;8.80;99.90;;;;;;4958252;29;20027;-82
2023/12/21 12:56:10;;;;;;;0.00;0.00;;;8.80;99.90;;;;;;4938963;29;20378;-82
2023/12/21 12:58:38;;;;;;;0.13;0.10;;;8.90;99.90;;;;;;4937235;29;20038;-81
2023/12/21 13:01:05;;;;;;;0.00;0.00;;;9.00;99.90;;;;;;4937168;29;20086;-81
2023/12/21 13:03:31;;;;;;;0.00;0.00;;;9.10;99.90;;;;;;4956269;29;20023;-80
2023/12/21 13:05:58;;;;;;;0.10;0.10;;;9.30;99.90;;;;;;4942740;29;20062;-82